sensor_id;sensor_type;location;lat;lon;timestamp;pressure;altitude;pressure_sealevel;temperature;humidity
84593;BME280;74832;51.656;5.298;2023-12-28T00:00:22;100899.78;;;17.09;63.60
84593;BME280;74832;51.656;5.298;2023-12-28T00:00:53;100896.52;;;17.10;63.59
84593;BME280;74832;51.656;5.298;2023-12-28T00:01:23;100901.62;;;17.07;63.61
84593;BME280;74832;51.656;5.298;2023-12-28T00:01:53;100905.23;;;17.06;63.81
84593;BME280;74832;51.656;5.298;2023-12-28T00:02:24;100909.38;;;17.05;63.75
84593;BME280;74832;51.656;5.298;2023-12-28T00:02:54;100910.08;;;17.07;63.75
84593;BME280;74832;51.656;5.298;2023-12-28T00:03:24;100912.74;;;17.08;63.74
84593;BME280;74832;51.656;5.298;2023-12-28T00:03:55;100911.82;;;17.06;63.70
84593;BME280;74832;51.656;5.298;2023-12-28T00:04:25;100912.64;;;17.08;63.72
84593;BME280;74832;51.656;5.298;2023-12-28T00:04:56;100912.85;;;17.04;63.63
84593;BME280;74832;51.656;5.298;2023-12-28T00:05:26;100910.91;;;17.09;63.17
84593;BME280;74832;51.656;5.298;2023-12-28T00:05:56;100909.46;;;17.08;63.58
84593;BME280;74832;51.656;5.298;2023-12-28T00:06:27;100913.91;;;17.07;63.69
84593;BME280;74832;51.656;5.298;2023-12-28T00:06:57;100909.87;;;17.07;63.77
84593;BME280;74832;51.656;5.298;2023-12-28T00:07:27;100908.25;;;17.09;63.72
84593;BME280;74832;51.656;5.298;2023-12-28T00:07:58;100902.39;;;17.07;63.49
84593;BME280;74832;51.656;5.298;2023-12-28T00:08:28;100896.28;;;17.09;63.66
84593;BME280;74832;51.656;5.298;2023-12-28T00:08:58;100906.15;;;17.09;63.56
84593;BME280;74832;51.656;5.298;2023-12-28T00:09:29;100904.57;;;17.07;63.73
84593;BME280;74832;51.656;5.298;2023-12-28T00:09:59;100900.74;;;17.04;63.72
84593;BME280;74832;51.656;5.298;2023-12-28T00:10:30;100906.57;;;17.06;63.74
84593;BME280;74832;51.656;5.298;2023-12-28T00:11:05;100902.43;;;17.01;63.84
84593;BME280;74832;51.656;5.298;2023-12-28T00:11:35;100907.19;;;17.04;63.75
84593;BME280;74832;51.656;5.298;2023-12-28T00:12:06;100907.44;;;17.04;63.69
84593;BME280;74832;51.656;5.298;2023-12-28T00:12:36;100906.81;;;17.04;63.78
84593;BME280;74832;51.656;5.298;2023-12-28T00:13:07;100903.58;;;17.02;63.93
84593;BME280;74832;51.656;5.298;2023-12-28T00:13:37;100902.18;;;17.01;63.80
84593;BME280;74832;51.656;5.298;2023-12-28T00:14:08;100902.16;;;17.02;63.90
84593;BME280;74832;51.656;5.298;2023-12-28T00:14:38;100900.35;;;17.00;64.00
84593;BME280;74832;51.656;5.298;2023-12-28T00:15:09;100909.28;;;17.02;63.82
84593;BME280;74832;51.656;5.298;2023-12-28T00:15:39;100909.02;;;17.01;63.87
84593;BME280;74832;51.656;5.298;2023-12-28T00:16:09;100899.08;;;17.01;63.84
84593;BME280;74832;51.656;5.298;2023-12-28T00:16:40;100903.13;;;17.00;63.87
84593;BME280;74832;51.656;5.298;2023-12-28T00:17:10;100903.65;;;17.00;63.94
84593;BME280;74832;51.656;5.298;2023-12-28T00:17:41;100906.29;;;16.99;63.77
84593;BME280;74832;51.656;5.298;2023-12-28T00:18:11;100902.78;;;17.01;63.89
84593;BME280;74832;51.656;5.298;2023-12-28T00:18:41;100905.57;;;16.97;63.83
84593;BME280;74832;51.656;5.298;2023-12-28T00:19:12;100907.92;;;16.98;63.82
84593;BME280;74832;51.656;5.298;2023-12-28T00:19:42;100908.94;;;16.96;63.87
84593;BME280;74832;51.656;5.298;2023-12-28T00:20:13;100910.17;;;16.96;64.06
84593;BME280;74832;51.656;5.298;2023-12-28T00:20:43;100907.19;;;16.95;63.87
84593;BME280;74832;51.656;5.298;2023-12-28T00:21:13;100907.17;;;16.93;63.98
84593;BME280;74832;51.656;5.298;2023-12-28T00:21:44;100911.08;;;16.94;64.07
84593;BME280;74832;51.656;5.298;2023-12-28T00:22:14;100912.30;;;16.95;63.89
84593;BME280;74832;51.656;5.298;2023-12-28T00:22:44;100916.06;;;16.98;64.07
84593;BME280;74832;51.656;5.298;2023-12-28T00:23:15;100906.88;;;16.98;64.08
84593;BME280;74832;51.656;5.298;2023-12-28T00:23:45;100911.85;;;16.96;64.00
84593;BME280;74832;51.656;5.298;2023-12-28T00:24:20;100912.34;;;16.98;63.95
84593;BME280;74832;51.656;5.298;2023-12-28T00:24:50;100908.27;;;17.01;63.92
84593;BME280;74832;51.656;5.298;2023-12-28T00:25:21;100910.85;;;17.01;63.88
84593;BME280;74832;51.656;5.298;2023-12-28T00:25:51;100904.23;;;17.00;63.88
84593;BME280;74832;51.656;5.298;2023-12-28T00:26:22;100908.90;;;17.02;63.92
84593;BME280;74832;51.656;5.298;2023-12-28T00:26:52;100912.70;;;17.01;63.93
84593;BME280;74832;51.656;5.298;2023-12-28T00:27:22;100914.82;;;17.00;63.92
84593;BME280;74832;51.656;5.298;2023-12-28T00:27:53;100906.42;;;17.00;63.92
84593;BME280;74832;51.656;5.298;2023-12-28T00:28:23;100911.82;;;16.99;63.97
84593;BME280;74832;51.656;5.298;2023-12-28T00:28:53;100915.55;;;16.98;63.91
84593;BME280;74832;51.656;5.298;2023-12-28T00:29:24;100916.97;;;17.02;63.92
84593;BME280;74832;51.656;5.298;2023-12-28T00:29:54;100920.62;;;17.01;63.92
84593;BME280;74832;51.656;5.298;2023-12-28T00:30:25;100925.39;;;17.02;63.87
84593;BME280;74832;51.656;5.298;2023-12-28T00:30:55;100928.17;;;17.02;63.98
84593;BME280;74832;51.656;5.298;2023-12-28T00:31:25;100924.65;;;16.96;64.08
84593;BME280;74832;51.656;5.298;2023-12-28T00:31:56;100920.73;;;16.96;63.98
84593;BME280;74832;51.656;5.298;2023-12-28T00:32:26;100918.36;;;16.98;64.04
84593;BME280;74832;51.656;5.298;2023-12-28T00:32:57;100915.33;;;16.96;64.07
84593;BME280;74832;51.656;5.298;2023-12-28T00:33:27;100924.34;;;16.95;64.06
84593;BME280;74832;51.656;5.298;2023-12-28T00:33:57;100919.63;;;16.98;64.15
84593;BME280;74832;51.656;5.298;2023-12-28T00:34:28;100920.95;;;16.95;63.90
84593;BME280;74832;51.656;5.298;2023-12-28T00:34:58;100930.08;;;16.95;64.15
84593;BME280;74832;51.656;5.298;2023-12-28T00:35:28;100928.04;;;16.96;64.09
84593;BME280;74832;51.656;5.298;2023-12-28T00:35:59;100927.86;;;16.97;64.08
84593;BME280;74832;51.656;5.298;2023-12-28T00:36:29;100929.27;;;16.98;63.90
84593;BME280;74832;51.656;5.298;2023-12-28T00:37:00;100929.68;;;16.95;64.06
84593;BME280;74832;51.656;5.298;2023-12-28T00:37:30;100926.55;;;16.96;64.09
84593;BME280;74832;51.656;5.298;2023-12-28T00:38:00;100932.54;;;16.94;64.21
84593;BME280;74832;51.656;5.298;2023-12-28T00:38:31;100933.88;;;16.93;64.17
84593;BME280;74832;51.656;5.298;2023-12-28T00:39:05;100931.77;;;16.94;64.04
84593;BME280;74832;51.656;5.298;2023-12-28T00:39:38;100935.09;;;16.96;63.81
84593;BME280;74832;51.656;5.298;2023-12-28T00:40:09;100928.26;;;16.95;64.08
84593;BME280;74832;51.656;5.298;2023-12-28T00:40:39;100935.42;;;16.94;64.07
84593;BME280;74832;51.656;5.298;2023-12-28T00:41:10;100931.41;;;16.96;64.06
84593;BME280;74832;51.656;5.298;2023-12-28T00:41:40;100932.86;;;16.96;64.13
84593;BME280;74832;51.656;5.298;2023-12-28T00:42:11;100931.04;;;16.96;64.03
84593;BME280;74832;51.656;5.298;2023-12-28T00:42:41;100931.55;;;16.94;64.14
84593;BME280;74832;51.656;5.298;2023-12-28T00:43:11;100922.93;;;16.94;64.13
84593;BME280;74832;51.656;5.298;2023-12-28T00:43:42;100918.28;;;16.95;63.96
84593;BME280;74832;51.656;5.298;2023-12-28T00:44:12;100920.11;;;16.95;64.04
84593;BME280;74832;51.656;5.298;2023-12-28T00:44:42;100927.48;;;16.95;64.12
84593;BME280;74832;51.656;5.298;2023-12-28T00:45:13;100933.11;;;16.95;63.95
84593;BME280;74832;51.656;5.298;2023-12-28T00:45:43;100925.33;;;16.96;63.84
84593;BME280;74832;51.656;5.298;2023-12-28T00:46:14;100939.82;;;16.95;64.11
84593;BME280;74832;51.656;5.298;2023-12-28T00:46:44;100930.03;;;16.94;64.15
84593;BME280;74832;51.656;5.298;2023-12-28T00:47:15;100931.02;;;16.88;64.31
84593;BME280;74832;51.656;5.298;2023-12-28T00:47:45;100934.25;;;16.94;64.23
84593;BME280;74832;51.656;5.298;2023-12-28T00:48:15;100930.11;;;16.92;64.26
84593;BME280;74832;51.656;5.298;2023-12-28T00:48:46;100930.44;;;16.93;64.24
84593;BME280;74832;51.656;5.298;2023-12-28T00:49:16;100937.26;;;16.92;64.15
84593;BME280;74832;51.656;5.298;2023-12-28T00:49:47;100930.29;;;16.90;64.18
84593;BME280;74832;51.656;5.298;2023-12-28T00:50:17;100934.20;;;16.91;64.19
84593;BME280;74832;51.656;5.298;2023-12-28T00:50:48;100933.47;;;16.90;64.16
84593;BME280;74832;51.656;5.298;2023-12-28T00:51:18;100931.18;;;16.92;64.26
84593;BME280;74832;51.656;5.298;2023-12-28T00:51:48;100935.79;;;16.94;63.99
84593;BME280;74832;51.656;5.298;2023-12-28T00:52:19;100933.24;;;16.91;64.23
84593;BME280;74832;51.656;5.298;2023-12-28T00:52:49;100936.49;;;16.93;64.16
84593;BME280;74832;51.656;5.298;2023-12-28T00:53:19;100935.90;;;16.93;64.11
84593;BME280;74832;51.656;5.298;2023-12-28T00:53:50;100945.98;;;16.92;64.00
84593;BME280;74832;51.656;5.298;2023-12-28T00:54:20;100937.38;;;16.89;64.20
84593;BME280;74832;51.656;5.298;2023-12-28T00:54:51;100936.11;;;16.92;64.21
84593;BME280;74832;51.656;5.298;2023-12-28T00:55:21;100934.35;;;16.91;64.20
84593;BME280;74832;51.656;5.298;2023-12-28T00:55:51;100941.30;;;16.89;64.06
84593;BME280;74832;51.656;5.298;2023-12-28T00:56:22;100942.14;;;16.89;64.28
84593;BME280;74832;51.656;5.298;2023-12-28T00:56:52;100943.56;;;16.92;64.22
84593;BME280;74832;51.656;5.298;2023-12-28T00:57:22;100946.39;;;16.90;64.22
84593;BME280;74832;51.656;5.298;2023-12-28T00:57:53;100949.97;;;16.90;64.03
84593;BME280;74832;51.656;5.298;2023-12-28T00:58:23;100946.56;;;16.92;64.18
84593;BME280;74832;51.656;5.298;2023-12-28T00:58:54;100949.55;;;16.90;64.06
84593;BME280;74832;51.656;5.298;2023-12-28T00:59:24;100949.27;;;16.90;64.27
84593;BME280;74832;51.656;5.298;2023-12-28T00:59:54;100949.74;;;16.91;64.14
84593;BME280;74832;51.656;5.298;2023-12-28T01:00:25;100948.93;;;16.93;63.98
84593;BME280;74832;51.656;5.298;2023-12-28T01:00:55;100949.98;;;16.91;64.09
84593;BME280;74832;51.656;5.298;2023-12-28T01:01:25;100949.95;;;16.95;64.20
84593;BME280;74832;51.656;5.298;2023-12-28T01:01:56;100950.02;;;16.95;64.23
84593;BME280;74832;51.656;5.298;2023-12-28T01:02:27;100944.66;;;16.97;64.07
84593;BME280;74832;51.656;5.298;2023-12-28T01:02:57;100953.14;;;16.93;64.04
84593;BME280;74832;51.656;5.298;2023-12-28T01:03:27;100957.49;;;16.88;64.20
84593;BME280;74832;51.656;5.298;2023-12-28T01:03:58;100952.39;;;16.90;64.14
84593;BME280;74832;51.656;5.298;2023-12-28T01:04:28;100952.07;;;16.91;64.14
84593;BME280;74832;51.656;5.298;2023-12-28T01:04:58;100955.20;;;16.93;64.12
84593;BME280;74832;51.656;5.298;2023-12-28T01:05:29;100952.31;;;16.94;64.14
84593;BME280;74832;51.656;5.298;2023-12-28T01:05:59;100952.72;;;16.95;64.13
84593;BME280;74832;51.656;5.298;2023-12-28T01:06:30;100947.44;;;16.92;64.05
84593;BME280;74832;51.656;5.298;2023-12-28T01:07:04;100950.52;;;16.93;64.13
84593;BME280;74832;51.656;5.298;2023-12-28T01:07:35;100951.74;;;16.90;64.18
84593;BME280;74832;51.656;5.298;2023-12-28T01:08:06;100953.94;;;16.88;64.21
84593;BME280;74832;51.656;5.298;2023-12-28T01:08:37;100959.21;;;16.88;64.32
84593;BME280;74832;51.656;5.298;2023-12-28T01:09:07;100950.63;;;16.91;63.98
84593;BME280;74832;51.656;5.298;2023-12-28T01:09:37;100953.19;;;16.91;64.09
84593;BME280;74832;51.656;5.298;2023-12-28T01:10:08;100951.56;;;16.93;64.04
84593;BME280;74832;51.656;5.298;2023-12-28T01:10:38;100955.00;;;16.87;64.28
84593;BME280;74832;51.656;5.298;2023-12-28T01:11:10;100953.40;;;16.90;64.12
84593;BME280;74832;51.656;5.298;2023-12-28T01:11:41;100958.12;;;16.90;64.18
84593;BME280;74832;51.656;5.298;2023-12-28T01:12:11;100953.92;;;16.86;64.32
84593;BME280;74832;51.656;5.298;2023-12-28T01:12:42;100951.64;;;16.88;64.28
84593;BME280;74832;51.656;5.298;2023-12-28T01:13:12;100953.13;;;16.88;64.25
84593;BME280;74832;51.656;5.298;2023-12-28T01:13:43;100949.53;;;16.88;64.11
84593;BME280;74832;51.656;5.298;2023-12-28T01:14:13;100951.60;;;16.90;64.21
84593;BME280;74832;51.656;5.298;2023-12-28T01:14:44;100947.88;;;16.94;64.17
84593;BME280;74832;51.656;5.298;2023-12-28T01:15:14;100952.22;;;16.93;64.09
84593;BME280;74832;51.656;5.298;2023-12-28T01:15:45;100957.34;;;16.89;64.23
84593;BME280;74832;51.656;5.298;2023-12-28T01:16:15;100957.17;;;16.89;64.15
84593;BME280;74832;51.656;5.298;2023-12-28T01:16:45;100955.88;;;16.92;64.18
84593;BME280;74832;51.656;5.298;2023-12-28T01:17:16;100951.61;;;16.89;64.26
84593;BME280;74832;51.656;5.298;2023-12-28T01:17:46;100956.93;;;16.87;64.34
84593;BME280;74832;51.656;5.298;2023-12-28T01:18:17;100958.63;;;16.84;64.33
84593;BME280;74832;51.656;5.298;2023-12-28T01:18:47;100960.59;;;16.87;64.31
84593;BME280;74832;51.656;5.298;2023-12-28T01:19:17;100956.36;;;16.87;64.32
84593;BME280;74832;51.656;5.298;2023-12-28T01:19:48;100963.62;;;16.88;64.41
84593;BME280;74832;51.656;5.298;2023-12-28T01:20:18;100964.79;;;16.91;64.25
84593;BME280;74832;51.656;5.298;2023-12-28T01:20:48;100966.66;;;16.90;64.00
84593;BME280;74832;51.656;5.298;2023-12-28T01:21:19;100963.85;;;16.88;64.33
84593;BME280;74832;51.656;5.298;2023-12-28T01:21:50;100963.18;;;16.85;64.42
84593;BME280;74832;51.656;5.298;2023-12-28T01:22:20;100965.04;;;16.85;64.33
84593;BME280;74832;51.656;5.298;2023-12-28T01:22:50;100969.16;;;16.87;64.40
84593;BME280;74832;51.656;5.298;2023-12-28T01:23:21;100964.73;;;16.87;64.30
84593;BME280;74832;51.656;5.298;2023-12-28T01:23:51;100967.10;;;16.85;64.34
84593;BME280;74832;51.656;5.298;2023-12-28T01:24:22;100968.02;;;16.87;64.27
84593;BME280;74832;51.656;5.298;2023-12-28T01:24:52;100973.65;;;16.86;64.19
84593;BME280;74832;51.656;5.298;2023-12-28T01:25:22;100970.42;;;16.81;64.29
84593;BME280;74832;51.656;5.298;2023-12-28T01:25:55;100970.13;;;16.79;64.54
84593;BME280;74832;51.656;5.298;2023-12-28T01:26:25;100979.00;;;16.83;64.43
84593;BME280;74832;51.656;5.298;2023-12-28T01:26:55;100969.89;;;16.81;64.48
84593;BME280;74832;51.656;5.298;2023-12-28T01:27:26;100974.14;;;16.83;64.39
84593;BME280;74832;51.656;5.298;2023-12-28T01:27:56;100976.44;;;16.81;64.43
84593;BME280;74832;51.656;5.298;2023-12-28T01:28:27;100976.00;;;16.86;64.29
84593;BME280;74832;51.656;5.298;2023-12-28T01:28:57;100969.84;;;16.87;64.28
84593;BME280;74832;51.656;5.298;2023-12-28T01:29:27;100973.61;;;16.88;64.14
84593;BME280;74832;51.656;5.298;2023-12-28T01:29:58;100973.56;;;16.83;64.27
84593;BME280;74832;51.656;5.298;2023-12-28T01:30:28;100968.79;;;16.83;64.40
84593;BME280;74832;51.656;5.298;2023-12-28T01:30:58;100974.41;;;16.85;64.34
84593;BME280;74832;51.656;5.298;2023-12-28T01:31:29;100969.78;;;16.87;64.25
84593;BME280;74832;51.656;5.298;2023-12-28T01:31:59;100978.49;;;16.87;64.21
84593;BME280;74832;51.656;5.298;2023-12-28T01:32:30;100974.51;;;16.84;64.30
84593;BME280;74832;51.656;5.298;2023-12-28T01:33:04;100975.09;;;16.84;64.38
84593;BME280;74832;51.656;5.298;2023-12-28T01:33:34;100971.10;;;16.83;64.34
84593;BME280;74832;51.656;5.298;2023-12-28T01:34:05;100978.16;;;16.83;64.42
84593;BME280;74832;51.656;5.298;2023-12-28T01:34:35;100966.66;;;16.85;64.20
84593;BME280;74832;51.656;5.298;2023-12-28T01:35:06;100976.47;;;16.82;64.37
84593;BME280;74832;51.656;5.298;2023-12-28T01:35:37;100973.74;;;16.83;64.09
84593;BME280;74832;51.656;5.298;2023-12-28T01:36:16;100975.29;;;16.84;64.42
84593;BME280;74832;51.656;5.298;2023-12-28T01:36:46;100969.82;;;16.85;64.36
84593;BME280;74832;51.656;5.298;2023-12-28T01:37:17;100987.40;;;16.83;64.40
84593;BME280;74832;51.656;5.298;2023-12-28T01:37:47;100972.40;;;16.82;64.46
84593;BME280;74832;51.656;5.298;2023-12-28T01:38:18;100970.05;;;16.80;64.42
84593;BME280;74832;51.656;5.298;2023-12-28T01:38:48;100977.02;;;16.79;64.35
84593;BME280;74832;51.656;5.298;2023-12-28T01:39:18;100970.78;;;16.82;64.44
84593;BME280;74832;51.656;5.298;2023-12-28T01:39:49;100965.19;;;16.84;64.32
84593;BME280;74832;51.656;5.298;2023-12-28T01:40:19;100974.12;;;16.84;64.29
84593;BME280;74832;51.656;5.298;2023-12-28T01:40:50;100964.01;;;16.87;64.26
84593;BME280;74832;51.656;5.298;2023-12-28T01:41:20;100967.43;;;16.82;64.34
84593;BME280;74832;51.656;5.298;2023-12-28T01:41:50;100968.08;;;16.80;64.46
84593;BME280;74832;51.656;5.298;2023-12-28T01:42:21;100973.78;;;16.81;64.32
84593;BME280;74832;51.656;5.298;2023-12-28T01:42:51;100971.32;;;16.82;64.35
84593;BME280;74832;51.656;5.298;2023-12-28T01:43:21;100970.40;;;16.83;64.36
84593;BME280;74832;51.656;5.298;2023-12-28T01:43:52;100977.40;;;16.78;64.43
84593;BME280;74832;51.656;5.298;2023-12-28T01:44:22;100973.41;;;16.79;64.41
84593;BME280;74832;51.656;5.298;2023-12-28T01:44:52;100976.58;;;16.82;64.51
84593;BME280;74832;51.656;5.298;2023-12-28T01:45:23;100981.12;;;16.86;64.35
84593;BME280;74832;51.656;5.298;2023-12-28T01:45:53;100982.74;;;16.83;64.30
84593;BME280;74832;51.656;5.298;2023-12-28T01:46:24;100978.57;;;16.83;64.30
84593;BME280;74832;51.656;5.298;2023-12-28T01:46:54;100978.68;;;16.85;64.31
84593;BME280;74832;51.656;5.298;2023-12-28T01:47:25;100981.34;;;16.82;64.43
84593;BME280;74832;51.656;5.298;2023-12-28T01:47:58;100978.34;;;16.79;64.50
84593;BME280;74832;51.656;5.298;2023-12-28T01:48:29;100982.09;;;16.76;64.50
84593;BME280;74832;51.656;5.298;2023-12-28T01:49:00;100981.66;;;16.79;64.42
84593;BME280;74832;51.656;5.298;2023-12-28T01:49:31;100979.33;;;16.80;64.47
84593;BME280;74832;51.656;5.298;2023-12-28T01:50:02;100980.36;;;16.77;64.54
84593;BME280;74832;51.656;5.298;2023-12-28T01:50:33;100980.87;;;16.74;64.64
84593;BME280;74832;51.656;5.298;2023-12-28T01:51:04;100976.49;;;16.80;64.47
84593;BME280;74832;51.656;5.298;2023-12-28T01:51:34;100978.58;;;16.82;64.44
84593;BME280;74832;51.656;5.298;2023-12-28T01:52:06;100980.79;;;16.80;64.46
84593;BME280;74832;51.656;5.298;2023-12-28T01:52:37;100983.14;;;16.78;64.47
84593;BME280;74832;51.656;5.298;2023-12-28T01:53:08;100980.66;;;16.73;64.63
84593;BME280;74832;51.656;5.298;2023-12-28T01:53:38;100980.07;;;16.72;64.69
84593;BME280;74832;51.656;5.298;2023-12-28T01:54:09;100982.08;;;16.76;64.58
84593;BME280;74832;51.656;5.298;2023-12-28T01:54:39;100976.98;;;16.80;64.36
84593;BME280;74832;51.656;5.298;2023-12-28T01:55:10;100982.37;;;16.81;64.42
84593;BME280;74832;51.656;5.298;2023-12-28T01:55:41;100983.44;;;16.82;64.33
84593;BME280;74832;51.656;5.298;2023-12-28T01:56:11;100982.34;;;16.79;64.47
84593;BME280;74832;51.656;5.298;2023-12-28T01:56:43;100985.35;;;16.77;64.52
84593;BME280;74832;51.656;5.298;2023-12-28T01:57:14;100979.02;;;16.75;64.53
84593;BME280;74832;51.656;5.298;2023-12-28T01:57:45;100985.49;;;16.81;64.22
84593;BME280;74832;51.656;5.298;2023-12-28T01:58:16;100979.31;;;16.82;64.30
84593;BME280;74832;51.656;5.298;2023-12-28T01:58:49;100983.88;;;16.78;64.43
84593;BME280;74832;51.656;5.298;2023-12-28T01:59:19;100983.83;;;16.78;64.42
84593;BME280;74832;51.656;5.298;2023-12-28T01:59:50;100982.59;;;16.77;64.43
84593;BME280;74832;51.656;5.298;2023-12-28T02:00:21;100986.80;;;16.76;64.51
84593;BME280;74832;51.656;5.298;2023-12-28T02:00:52;100986.48;;;16.75;64.51
84593;BME280;74832;51.656;5.298;2023-12-28T02:01:22;100985.23;;;16.72;64.59
84593;BME280;74832;51.656;5.298;2023-12-28T02:01:53;100986.75;;;16.70;64.58
84593;BME280;74832;51.656;5.298;2023-12-28T02:02:24;100980.37;;;16.73;64.53
84593;BME280;74832;51.656;5.298;2023-12-28T02:02:54;100982.20;;;16.73;64.69
84593;BME280;74832;51.656;5.298;2023-12-28T02:03:25;100985.32;;;16.75;64.51
84593;BME280;74832;51.656;5.298;2023-12-28T02:03:57;100989.18;;;16.72;64.62
84593;BME280;74832;51.656;5.298;2023-12-28T02:04:27;100985.28;;;16.70;64.76
84593;BME280;74832;51.656;5.298;2023-12-28T02:04:58;100980.15;;;16.70;64.62
84593;BME280;74832;51.656;5.298;2023-12-28T02:05:28;100994.40;;;16.66;64.87
84593;BME280;74832;51.656;5.298;2023-12-28T02:05:59;100988.90;;;16.71;64.65
84593;BME280;74832;51.656;5.298;2023-12-28T02:06:31;100989.42;;;16.76;64.41
84593;BME280;74832;51.656;5.298;2023-12-28T02:07:01;100990.42;;;16.77;64.46
84593;BME280;74832;51.656;5.298;2023-12-28T02:07:32;100994.48;;;16.76;64.60
84593;BME280;74832;51.656;5.298;2023-12-28T02:08:03;100994.51;;;16.75;64.51
84593;BME280;74832;51.656;5.298;2023-12-28T02:08:34;100986.55;;;16.74;64.44
84593;BME280;74832;51.656;5.298;2023-12-28T02:09:04;100983.08;;;16.70;64.62
84593;BME280;74832;51.656;5.298;2023-12-28T02:09:35;100983.91;;;16.71;64.54
84593;BME280;74832;51.656;5.298;2023-12-28T02:10:06;100982.82;;;16.77;64.40
84593;BME280;74832;51.656;5.298;2023-12-28T02:10:38;100982.83;;;16.75;64.46
84593;BME280;74832;51.656;5.298;2023-12-28T02:11:09;100979.53;;;16.72;64.55
84593;BME280;74832;51.656;5.298;2023-12-28T02:11:39;100980.29;;;16.75;64.06
84593;BME280;74832;51.656;5.298;2023-12-28T02:12:10;100983.72;;;16.74;64.40
84593;BME280;74832;51.656;5.298;2023-12-28T02:12:40;100982.88;;;16.71;64.55
84593;BME280;74832;51.656;5.298;2023-12-28T02:13:11;100981.27;;;16.72;64.56
84593;BME280;74832;51.656;5.298;2023-12-28T02:13:43;100977.05;;;16.74;64.61
84593;BME280;74832;51.656;5.298;2023-12-28T02:14:14;100979.14;;;16.77;64.54
84593;BME280;74832;51.656;5.298;2023-12-28T02:14:44;100983.76;;;16.77;64.38
84593;BME280;74832;51.656;5.298;2023-12-28T02:15:15;100977.25;;;16.77;64.40
84593;BME280;74832;51.656;5.298;2023-12-28T02:15:46;100978.80;;;16.75;64.52
84593;BME280;74832;51.656;5.298;2023-12-28T02:16:22;100978.75;;;16.72;64.56
84593;BME280;74832;51.656;5.298;2023-12-28T02:17:00;100970.00;;;16.71;64.53
84593;BME280;74832;51.656;5.298;2023-12-28T02:17:37;100968.81;;;16.71;64.55
84593;BME280;74832;51.656;5.298;2023-12-28T02:18:11;100966.32;;;16.70;64.57
84593;BME280;74832;51.656;5.298;2023-12-28T02:18:43;100966.44;;;16.67;64.73
84593;BME280;74832;51.656;5.298;2023-12-28T02:19:21;100967.12;;;16.69;64.62
84593;BME280;74832;51.656;5.298;2023-12-28T02:19:56;100965.34;;;16.66;64.80
84593;BME280;74832;51.656;5.298;2023-12-28T02:20:29;100969.63;;;16.64;64.64
84593;BME280;74832;51.656;5.298;2023-12-28T02:21:02;100971.71;;;16.66;64.74
84593;BME280;74832;51.656;5.298;2023-12-28T02:21:33;100971.77;;;16.70;64.61
84593;BME280;74832;51.656;5.298;2023-12-28T02:22:04;100973.73;;;16.71;64.57
84593;BME280;74832;51.656;5.298;2023-12-28T02:22:36;100975.20;;;16.72;64.44
84593;BME280;74832;51.656;5.298;2023-12-28T02:23:06;100971.74;;;16.66;64.79
84593;BME280;74832;51.656;5.298;2023-12-28T02:23:37;100969.17;;;16.65;64.77
84593;BME280;74832;51.656;5.298;2023-12-28T02:24:07;100972.26;;;16.67;64.77
84593;BME280;74832;51.656;5.298;2023-12-28T02:24:58;100972.12;;;16.68;64.59
84593;BME280;74832;51.656;5.298;2023-12-28T02:25:28;100966.81;;;16.66;64.75
84593;BME280;74832;51.656;5.298;2023-12-28T02:25:59;100967.32;;;16.67;64.72
84593;BME280;74832;51.656;5.298;2023-12-28T02:26:29;100971.23;;;16.70;64.60
84593;BME280;74832;51.656;5.298;2023-12-28T02:26:59;100960.92;;;16.71;64.31
84593;BME280;74832;51.656;5.298;2023-12-28T02:27:30;100969.33;;;16.73;64.43
84593;BME280;74832;51.656;5.298;2023-12-28T02:28:00;100968.31;;;16.68;64.65
84593;BME280;74832;51.656;5.298;2023-12-28T02:28:31;100968.36;;;16.67;64.60
84593;BME280;74832;51.656;5.298;2023-12-28T02:29:01;100971.26;;;16.72;64.58
84593;BME280;74832;51.656;5.298;2023-12-28T02:29:32;100972.85;;;16.71;64.59
84593;BME280;74832;51.656;5.298;2023-12-28T02:30:03;100976.04;;;16.69;64.62
84593;BME280;74832;51.656;5.298;2023-12-28T02:30:34;100963.06;;;16.72;64.52
84593;BME280;74832;51.656;5.298;2023-12-28T02:31:06;100966.15;;;16.71;64.51
84593;BME280;74832;51.656;5.298;2023-12-28T02:31:43;100967.66;;;16.72;64.51
84593;BME280;74832;51.656;5.298;2023-12-28T02:32:16;100974.20;;;16.69;64.67
84593;BME280;74832;51.656;5.298;2023-12-28T02:32:58;100963.62;;;16.71;64.48
84593;BME280;74832;51.656;5.298;2023-12-28T02:33:35;100963.96;;;16.74;64.45
84593;BME280;74832;51.656;5.298;2023-12-28T02:34:13;100963.02;;;16.76;64.38
84593;BME280;74832;51.656;5.298;2023-12-28T02:34:47;100967.11;;;16.71;64.51
84593;BME280;74832;51.656;5.298;2023-12-28T02:35:26;100959.48;;;16.69;64.51
84593;BME280;74832;51.656;5.298;2023-12-28T02:36:02;100959.94;;;16.68;64.62
84593;BME280;74832;51.656;5.298;2023-12-28T02:36:36;100965.71;;;16.69;64.63
84593;BME280;74832;51.656;5.298;2023-12-28T02:37:12;100970.63;;;16.70;64.61
84593;BME280;74832;51.656;5.298;2023-12-28T02:37:44;100960.70;;;16.69;64.54
84593;BME280;74832;51.656;5.298;2023-12-28T02:38:18;100968.26;;;16.69;64.61
84593;BME280;74832;51.656;5.298;2023-12-28T02:38:51;100963.47;;;16.70;64.57
84593;BME280;74832;51.656;5.298;2023-12-28T02:39:23;100964.46;;;16.72;64.48
84593;BME280;74832;51.656;5.298;2023-12-28T02:39:55;100960.10;;;16.70;64.50
84593;BME280;74832;51.656;5.298;2023-12-28T02:40:26;100965.93;;;16.69;64.55
84593;BME280;74832;51.656;5.298;2023-12-28T02:40:58;100960.02;;;16.66;64.63
84593;BME280;74832;51.656;5.298;2023-12-28T02:41:29;100956.83;;;16.67;64.63
84593;BME280;74832;51.656;5.298;2023-12-28T02:42:00;100961.38;;;16.69;64.57
84593;BME280;74832;51.656;5.298;2023-12-28T02:42:31;100959.35;;;16.68;64.61